»·PEaware :: N679HB KSDM-KTOA

N679HB :: KSDM-KTOA

FLIGHT INFORMATION

Flight Status: Arrived
Operator: Privately registered:
United States
More flights under this callsign
Pilot: Henrik G. (22897)
Aircraft: PIPER PA-28R-201 ARROW
(P28R)
More flights by this aircraft type
Origin: KSDM Brown Mun
United States
Destination: KTOA Zamperini
United States
More flights between these airports :: More routes between these airports
Route: +MZB V23 SLI
File this flight plan on PilotEdge
Remarks: SANP3
Altitude:
(Current/Filed)
6,000ft
Speed:
(Current/Filed)
130kts
Departed: 09-Nov-19 11:24 AM
Arrived: 09-Nov-19 12:17 PM
Distance/Time
Traveled:
100nm/0:52
Distance/Time
To Go:
Arrived

Flight Plot

Page will automatically refresh every two minutes.

Flight plan parsing failed; only flown route is shown


Map Options




Map Legend


Flown Route
Filed Route
Departure Airport
Arrival Airport
Navaid (VOR, NDB)
Fix

Horizontal Profiles

Position Reports

Time Latitude Longitude Heading Altitude Ground
Speed
09-Nov-19 10:57 32.570807 -116.990418 14 513ft 0kts
09-Nov-19 10:58 32.570807 -116.990418 14 513ft 0kts
09-Nov-19 10:59 32.570807 -116.990418 14 513ft 0kts
09-Nov-19 11:00 32.570808 -116.990418 14 513ft 0kts
09-Nov-19 11:01 32.570808 -116.990418 14 513ft 0kts
09-Nov-19 11:02 32.570808 -116.990418 14 513ft 0kts
09-Nov-19 11:03 32.570808 -116.990418 14 513ft 0kts
09-Nov-19 11:04 32.570808 -116.990418 14 513ft 0kts
09-Nov-19 11:05 32.570808 -116.990418 14 513ft 0kts
09-Nov-19 11:06 32.570808 -116.990418 14 513ft 0kts
09-Nov-19 11:07 32.570808 -116.990418 14 513ft 0kts
09-Nov-19 11:07 32.570808 -116.990418 14 513ft 0kts
09-Nov-19 11:09 32.570808 -116.990418 14 513ft 0kts
09-Nov-19 11:10 32.570808 -116.990418 14 513ft 0kts
09-Nov-19 11:10 32.570808 -116.990418 14 513ft 0kts
09-Nov-19 11:11 32.570808 -116.990418 14 513ft 0kts
09-Nov-19 11:13 32.570808 -116.990418 14 513ft 0kts
09-Nov-19 11:13 32.570808 -116.990418 14 513ft 0kts
09-Nov-19 11:14 32.570808 -116.990418 14 513ft 0kts
09-Nov-19 11:16 32.570808 -116.990418 14 513ft 0kts
09-Nov-19 11:16 32.570808 -116.990418 14 513ft 0kts
09-Nov-19 11:17 32.570808 -116.990418 14 513ft 0kts
09-Nov-19 11:18 32.571043 -116.990272 39 513ft 10kts
09-Nov-19 11:19 32.570548 -116.982903 95 514ft 28kts
09-Nov-19 11:20 32.569733 -116.973225 95 513ft 29kts
09-Nov-19 11:21 32.571181 -116.968278 5 513ft 0kts
09-Nov-19 11:22 32.571181 -116.968278 5 513ft 0kts
09-Nov-19 11:23 32.571886 -116.970861 275 514ft 60kts
09-Nov-19 11:24 32.576844 -117.000418 292 1120ft 101kts
09-Nov-19 11:25 32.587374 -117.031108 293 1969ft 100kts
09-Nov-19 11:26 32.597404 -117.062299 292 2733ft 101kts
09-Nov-19 11:27 32.606474 -117.093790 286 3478ft 101kts
09-Nov-19 11:28 32.627814 -117.113359 329 4154ft 101kts
09-Nov-19 11:29 32.652037 -117.130817 329 4800ft 103kts
09-Nov-19 11:30 32.676489 -117.149057 327 5431ft 103kts
09-Nov-19 11:31 32.701598 -117.168455 328 5937ft 113kts
09-Nov-19 11:32 32.730324 -117.190071 328 6031ft 130kts
09-Nov-19 11:33 32.761909 -117.213845 328 5932ft 137kts
09-Nov-19 11:34 32.795828 -117.233730 340 5870ft 136kts
09-Nov-19 11:35 32.831141 -117.247355 341 5960ft 129kts
09-Nov-19 11:36 32.866386 -117.260895 341 6008ft 133kts
09-Nov-19 11:37 32.902243 -117.274632 341 6029ft 135kts
09-Nov-19 11:38 32.938433 -117.288437 341 5999ft 137kts
09-Nov-19 11:39 32.974823 -117.302242 341 5990ft 137kts
09-Nov-19 11:40 33.010956 -117.317291 339 5978ft 137kts
09-Nov-19 11:41 33.045427 -117.332090 339 5967ft 138kts
09-Nov-19 11:42 33.080200 -117.347668 339 6012ft 132kts
09-Nov-19 11:43 33.114127 -117.363244 339 6024ft 131kts
09-Nov-19 11:44 33.148060 -117.378831 339 6017ft 130kts
09-Nov-19 11:45 33.182235 -117.394253 340 5999ft 131kts
09-Nov-19 11:46 33.216533 -117.409569 340 5981ft 132kts
09-Nov-19 11:47 33.249068 -117.429809 323 5935ft 135kts
09-Nov-19 11:48 33.276669 -117.459955 317 5915ft 134kts
09-Nov-19 11:49 33.303042 -117.490747 317 5981ft 131kts
09-Nov-19 11:50 33.329118 -117.521222 317 6035ft 132kts
09-Nov-19 11:51 33.355428 -117.551992 317 6087ft 132kts
09-Nov-19 11:52 33.381745 -117.582782 317 6096ft 134kts
09-Nov-19 11:53 33.408304 -117.613855 317 6106ft 133kts
09-Nov-19 11:54 33.434895 -117.644971 317 6044ft 133kts
09-Nov-19 11:55 33.461269 -117.675832 316 6025ft 133kts
09-Nov-19 11:56 33.487575 -117.706617 316 6042ft 133kts
09-Nov-19 11:57 33.514149 -117.737729 316 6059ft 133kts
09-Nov-19 11:58 33.540625 -117.768739 316 6076ft 133kts
09-Nov-19 11:59 33.567103 -117.799763 316 6093ft 133kts
09-Nov-19 12:00 33.593371 -117.830554 316 6109ft 133kts
09-Nov-19 12:01 33.619650 -117.861367 316 6124ft 133kts
09-Nov-19 12:02 33.646096 -117.892386 316 6086ft 133kts
09-Nov-19 12:03 33.672298 -117.923106 316 5400ft 134kts
09-Nov-19 12:04 33.698977 -117.954170 316 4348ft 132kts
09-Nov-19 12:05 33.725851 -117.985215 316 3997ft 135kts
09-Nov-19 12:06 33.746724 -118.019337 273 3775ft 131kts
09-Nov-19 12:07 33.747404 -118.062223 271 3077ft 126kts
09-Nov-19 12:08 33.747965 -118.104888 271 2982ft 128kts
09-Nov-19 12:09 33.749796 -118.147353 278 2499ft 124kts
09-Nov-19 12:10 33.754771 -118.187933 282 1887ft 119kts
09-Nov-19 12:11 33.760888 -118.228073 283 1232ft 122kts
09-Nov-19 12:12 33.771130 -118.258968 284 931ft 84kts
09-Nov-19 12:13 33.775386 -118.288724 276 1015ft 93kts
09-Nov-19 12:14 33.786203 -118.313754 309 853ft 83kts
09-Nov-19 12:15 33.800658 -118.334564 306 108ft 71kts
09-Nov-19 12:16 33.805851 -118.343777 292 101ft 22kts
09-Nov-19 12:17 33.805946 -118.344082 289 101ft 0kts
09-Nov-19 12:18 33.803279 -118.342431 128 101ft 27kts
09-Nov-19 12:19 33.800919 -118.340374 39 101ft 0kts

Navigation Log

Ident Type
Flight plan parsing failed, navigation log unavailable